Latest Weather Observations for Canterbury

IDN60901

Issued at 5:51 pm EDT Saturday 3 December 2016 (issued every 10 minutes, with the page automatically refreshed every 10 minutes)

About weather observations | Map of Sydney area stations | Latest observations for Sydney area | Other Formats
Station Details ID: 066194 Name: CANTERBURY RACECOURSE AWS Lat: -33.91 Lon: 151.11 Height: 3.0 m
Data from the previous 72 hours. | See also: Recent months at Canterbury
Date/Time
EDT
Temp
°C
App
Temp
°C
Dew
Point
°C
Rel
Hum
%
Delta-T
°C
Wind Press
QNH
hPa
Press
MSL
hPa
Rain since
9am
mm
Dir  Spd
km/h
Gust
km/h
Spd
kts
Gust
kts
03/05:30pm 24.1 22.4 14.8 56 5.5 E 17 26 9 14 - - 0.0
03/05:00pm 24.1 21.9 14.5 55 5.7 E 19 30 10 16 - - 0.0
03/04:30pm 24.4 22.3 14.8 55 5.7 ESE 19 30 10 16 - - 0.0
03/04:00pm 24.7 22.1 14.8 54 5.9 ESE 22 32 12 17 - - 0.0
03/03:30pm 24.9 22.7 15.0 54 5.9 ESE 20 30 11 16 - - 0.0
03/03:00pm 24.6 22.6 15.0 55 5.7 E 19 30 10 16 - - 0.0
03/02:30pm 24.1 21.8 15.6 59 5.1 SE 22 33 12 18 - - 0.0
03/02:00pm 24.6 21.9 14.7 54 5.9 SE 22 35 12 19 - - 0.0
03/01:30pm 24.4 22.3 15.3 57 5.5 SSE 20 28 11 15 - - 0.0
03/01:00pm 24.1 21.7 15.3 58 5.3 SE 22 30 12 16 - - 0.0
03/12:30pm 24.3 22.4 15.8 59 5.1 SE 20 30 11 16 - - 0.0
03/12:00pm 24.0 22.3 16.3 62 4.7 SE 20 28 11 15 - - 0.0
03/11:30am 24.2 22.7 16.2 61 4.9 SE 19 24 10 13 - - 0.0
03/11:00am 24.4 22.8 15.9 59 5.2 SE 19 28 10 15 - - 0.0
03/10:30am 23.3 21.8 15.4 61 4.7 SE 17 26 9 14 - - 0.0
03/10:00am 23.4 22.2 16.0 63 4.5 SE 17 22 9 12 - - 0.0
03/09:30am 23.4 22.6 16.0 63 4.5 SSE 15 26 8 14 - - 0.0
03/09:00am 22.6 21.3 15.7 65 4.1 SE 17 24 9 13 - - 0.0
03/08:30am 22.1 21.4 16.4 70 3.5 SE 15 24 8 13 - - 0.0
03/08:00am 21.6 22.3 17.0 75 2.8 SSE 9 15 5 8 - - 0.0
03/07:30am 21.3 21.0 16.5 74 2.9 SSE 13 17 7 9 - - 0.0
03/07:00am 21.1 21.3 16.7 76 2.7 SSE 11 15 6 8 - - 0.0
03/06:30am 20.7 20.5 16.7 78 2.4 SSE 13 19 7 10 - - 0.0
03/06:00am 20.8 20.6 16.8 78 2.4 SSE 13 20 7 11 - - 0.0
03/05:30am 20.8 19.9 16.8 78 2.4 SSE 17 24 9 13 - - 0.0
03/05:00am 20.8 20.7 17.0 79 2.3 SSE 13 19 7 10 - - 0.0
03/04:30am 20.8 20.4 17.2 80 2.2 SSE 15 22 8 12 - - 0.0
03/04:00am 20.9 21.3 17.3 80 2.2 SSE 11 19 6 10 - - 0.0
03/03:30am 20.9 21.4 17.5 81 2.1 SSE 11 19 6 10 - - 0.0
03/03:00am 21.0 20.9 17.8 82 2.0 SSE 15 24 8 13 - - 0.0
03/02:30am 21.0 19.3 18.0 83 1.9 SE 24 35 13 19 - - 0.0
03/02:00am 21.2 20.9 18.2 83 1.9 SE 17 28 9 15 - - 0.0
03/01:30am 21.1 19.9 18.3 84 1.7 SSE 22 33 12 18 - - 0.0
03/01:00am 21.3 20.8 18.7 85 1.6 SSE 19 28 10 15 - - 0.0
03/12:30am 21.2 21.0 18.4 84 1.7 SSE 17 30 9 16 - - 0.0
03/12:00am 21.4 21.6 18.6 84 1.8 SSE 15 30 8 16 - - 0.0
 
Date/Time
EDT
Temp
°C
App
Temp
°C
Dew
Point
°C
Rel
Hum
%
Delta-T
°C
Wind Press
QNH
hPa
Press
MSL
hPa
Rain since
9am
mm
Dir  Spd
km/h
Gust
km/h
Spd
kts
Gust
kts
02/11:30pm 21.7 20.6 18.7 83 1.9 SSE 22 33 12 18 - - 0.0
02/11:00pm 22.0 21.4 18.8 82 2.0 SSE 20 35 11 19 - - 0.0
02/10:30pm 22.5 21.5 18.9 80 2.3 SSE 22 35 12 19 - - 0.0
02/10:00pm 22.7 20.8 18.5 77 2.6 S 26 41 14 22 - - 0.0
02/09:30pm 23.3 22.1 18.4 74 3.1 S 22 37 12 20 - - 0.0
02/09:00pm 24.2 22.3 17.7 67 4.1 SSE 24 41 13 22 - - 0.0
02/08:56pm 24.4 22.8 17.4 65 4.4 SSE 22 41 12 22 - - 0.0
02/08:30pm 29.4 27.2 7.9 26 11.7 W 9 15 5 8 - - 0.0
02/08:00pm 30.2 27.7 8.0 25 12.2 NW 11 20 6 11 - - 0.0
02/07:30pm 30.6 27.2 7.7 24 12.5 WNW 15 20 8 11 - - 0.0
02/07:00pm 31.1 27.7 7.5 23 12.9 WNW 15 24 8 13 - - 0.0
02/06:30pm 31.7 27.9 7.4 22 13.3 WNW 17 28 9 15 - - 0.0
02/06:00pm 30.4 29.6 8.2 25 12.2 SE 2 13 1 7 - - 0.0
02/05:30pm 30.3 27.5 6.9 23 12.6 NE 11 17 6 9 - - 0.0
02/05:00pm 30.2 26.7 7.4 24 12.4 NNE 15 19 8 10 - - 0.0
02/04:30pm 31.6 28.0 5.2 19 13.9 ESE 13 19 7 10 - - 0.0
02/04:00pm 32.2 28.0 5.7 19 14.1 ESE 17 28 9 15 - - 0.0
02/03:30pm 33.3 29.1 7.3 20 14.3 ESE 19 28 10 15 - - 0.0
02/03:00pm 33.5 28.7 7.5 20 14.4 ESE 22 30 12 16 - - 0.0
02/02:30pm 35.3 32.4 8.2 19 15.3 WNW 13 24 7 13 - - 0.0
02/02:00pm 35.6 33.0 7.6 18 15.6 SW 11 24 6 13 - - 0.0
02/01:30pm 34.7 32.7 6.9 18 15.3 W 7 17 4 9 - - 0.0
02/01:00pm 34.3 30.1 7.4 19 14.9 SW 19 30 10 16 - - 0.0
02/12:30pm 34.0 31.4 6.3 18 15.0 W 9 22 5 12 - - 0.0
02/12:00pm 33.7 30.2 5.3 17 15.2 WSW 13 20 7 11 - - 0.0
02/11:30am 32.7 29.9 5.3 18 14.5 W 9 17 5 9 - - 0.0
02/11:00am 31.8 29.9 7.5 22 13.3 WNW 7 13 4 7 - - 0.0
02/10:30am 30.8 29.5 6.0 21 13.2 WNW 2 13 1 7 - - 0.0
02/10:00am 29.7 27.7 8.7 27 11.6 WNW 9 13 5 7 - - 0.0
02/09:30am 28.2 26.7 10.4 33 10.0 WNW 9 17 5 9 - - 0.0
02/09:00am 27.0 25.4 11.5 38 8.9 WNW 11 19 6 10 - - 0.0
02/08:30am 25.3 24.2 11.8 43 7.7 W 9 13 5 7 - - 0.0
02/08:00am 23.3 22.7 12.3 50 6.3 W 7 11 4 6 - - 0.0
02/07:30am 20.8 20.6 13.0 61 4.4 WNW 6 7 3 4 - - 0.0
02/07:00am 19.1 18.8 12.8 67 3.5 WNW 6 7 3 4 - - 0.0
02/06:30am 17.2 18.5 14.1 82 1.8 CALM 0 0 0 0 - - 0.0
02/06:00am 14.8 15.9 13.5 92 0.7 CALM 0 0 0 0 - - 0.0
02/05:30am 15.3 16.6 14.0 92 0.7 CALM 0 0 0 0 - - 0.0
02/05:00am 15.1 16.1 13.3 89 1.0 CALM 0 0 0 0 - - 0.0
02/04:30am 15.6 17.0 14.3 92 0.7 CALM 0 0 0 0 - - 0.0
02/04:00am 15.9 17.4 14.6 92 0.7 CALM 0 0 0 0 - - 0.0
02/03:30am 16.3 17.9 15.0 92 0.8 CALM 0 0 0 0 - - 0.0
02/03:00am 16.3 17.7 14.3 88 1.1 CALM 0 0 0 0 - - 0.0
02/02:30am 16.4 17.7 14.2 87 1.3 CALM 0 0 0 0 - - 0.0
02/02:00am 17.1 18.6 14.6 85 1.4 CALM 0 0 0 0 - - 0.0
02/01:30am 17.0 18.5 14.6 86 1.4 CALM 0 0 0 0 - - 0.0
02/01:00am 17.4 19.0 15.0 86 1.4 CALM 0 0 0 0 - - 0.0
02/12:30am 18.1 19.6 14.6 80 2.0 CALM 0 0 0 0 - - 0.0
02/12:00am 18.1 19.3 13.8 76 2.4 CALM 0 0 0 0 - - 0.0
 
Date/Time
EDT
Temp
°C
App
Temp
°C
Dew
Point
°C
Rel
Hum
%
Delta-T
°C
Wind Press
QNH
hPa
Press
MSL
hPa
Rain since
9am
mm
Dir  Spd
km/h
Gust
km/h
Spd
kts
Gust
kts
01/11:30pm 18.5 19.6 13.6 73 2.8 CALM 0 0 0 0 - - 0.0
01/11:00pm 19.0 20.1 13.6 71 3.1 CALM 0 0 0 0 - - 0.0
01/10:30pm 19.4 20.5 13.6 69 3.3 CALM 0 0 0 0 - - 0.0
01/10:00pm 19.8 20.6 12.6 63 4.0 CALM 0 0 0 0 - - 0.0
01/09:30pm 20.9 21.7 12.6 59 4.7 CALM 0 0 0 0 - - 0.0
01/09:00pm 21.0 20.7 12.7 59 4.7 E 6 7 3 4 - - 0.0
01/08:30pm 22.9 22.3 11.6 49 6.3 ENE 6 9 3 5 - - 0.0
01/08:00pm 26.2 24.7 9.1 34 9.3 ENE 7 11 4 6 - - 0.0
01/07:30pm 27.4 24.9 8.3 30 10.4 NE 11 17 6 9 - - 0.0
01/07:00pm 28.0 24.9 10.2 33 10.0 NE 17 24 9 13 - - 0.0
01/06:30pm 28.6 25.7 9.8 31 10.5 NE 15 24 8 13 - - 0.0
01/06:00pm 28.4 25.6 11.5 35 9.7 NE 17 26 9 14 - - 0.0
01/05:30pm 27.6 26.7 15.9 49 7.2 NE 15 26 8 14 - - 0.0
01/05:00pm 26.4 24.2 14.8 49 7.0 ENE 20 28 11 15 - - 0.0
01/04:30pm 26.6 24.5 14.7 48 7.1 ENE 19 30 10 16 - - 0.0
01/04:00pm 27.4 25.2 14.4 45 7.8 NE 19 32 10 17 - - 0.0
01/03:30pm 26.0 24.4 13.8 47 7.2 ENE 15 22 8 12 - - 0.0
01/03:00pm 26.9 24.4 13.6 44 7.9 E 19 28 10 15 - - 0.0
01/02:30pm 27.6 23.5 12.8 40 8.7 ENE 26 33 14 18 - - 0.0
01/02:00pm 29.9 25.6 10.9 31 10.9 ENE 24 32 13 17 - - 0.0
01/01:30pm 30.1 26.9 13.0 35 10.1 ENE 22 32 12 17 - - 0.0
01/01:00pm 31.0 27.8 11.4 30 11.4 ENE 19 26 10 14 - - 0.0
01/12:30pm 30.2 29.7 8.0 25 12.2 CALM 0 6 0 3 - - 0.0
01/12:00pm 29.2 28.1 9.9 30 10.8 SSE 6 11 3 6 - - 0.0
01/11:30am 28.0 28.0 11.1 35 9.6 WNW 2 7 1 4 - - 0.0
01/11:00am 27.3 28.2 14.0 44 7.9 ESE 2 9 1 5 - - 0.0
01/10:30am 25.4 26.0 14.2 50 6.6 W 4 9 2 5 - - 0.0
01/10:00am 23.8 25.2 15.3 59 5.1 SE 2 7 1 4 - - 0.0
01/09:30am 22.3 22.9 15.4 65 4.1 WSW 6 11 3 6 - - 0.0
01/09:00am 21.0 21.4 15.3 70 3.4 W 7 11 4 6 - - 0.0
01/08:30am 20.3 20.6 15.1 72 3.1 NNW 7 13 4 7 - - 0.0
01/08:00am 19.6 20.7 15.5 77 2.4 WSW 4 13 2 7 - - 0.0
01/07:30am 19.3 19.9 15.8 80 2.1 WSW 7 11 4 6 - - 0.0
01/07:00am 18.9 19.6 15.6 81 1.9 ENE 6 11 3 6 - - 0.0
01/06:30am 17.6 19.5 15.8 89 1.1 CALM 0 0 0 0 - - 0.0
01/06:00am 17.3 18.3 15.3 88 1.2 N 4 7 2 4 - - 0.0
01/05:30am 17.1 18.1 15.4 90 1.0 N 4 7 2 4 - - 0.0
01/05:00am 17.0 17.7 15.7 92 0.8 NW 6 7 3 4 - - 0.0
01/04:30am 16.4 17.9 15.6 95 0.5 WNW 2 7 1 4 - - 0.0
01/04:00am 16.3 18.1 15.5 95 0.5 CALM 0 0 0 0 - - 0.0
01/03:30am 16.8 17.8 16.3 97 0.3 W 6 7 3 4 - - 0.0
01/03:00am 16.2 17.9 15.2 94 0.6 CALM 0 0 0 0 - - 0.0
01/02:30am 16.7 17.6 16.1 96 0.4 W 6 7 3 4 - - 0.0
01/02:00am 16.9 18.9 16.1 95 0.5 CALM 0 0 0 0 - - 0.0
01/01:30am 16.7 18.4 15.1 90 0.9 CALM 0 0 0 0 - - 0.0
01/01:00am 18.0 20.3 16.7 92 0.8 CALM 0 0 0 0 - - 0.0
01/12:30am 18.4 20.4 16.0 86 1.4 CALM 0 0 0 0 - - 0.0
01/12:00am 19.6 21.9 16.8 84 1.7 CALM 0 0 0 0 - - 0.0
 
Date/Time
EDT
Temp
°C
App
Temp
°C
Dew
Point
°C
Rel
Hum
%
Delta-T
°C
Wind Press
QNH
hPa
Press
MSL
hPa
Rain since
9am
mm
Dir  Spd
km/h
Gust
km/h
Spd
kts
Gust
kts
30/11:30pm 20.3 21.7 16.5 79 2.3 NNE 4 9 2 5 - - 0.0
30/11:00pm 20.6 20.8 16.8 79 2.3 N 11 19 6 10 - - 0.0
30/10:30pm 21.0 20.9 17.0 78 2.4 N 13 22 7 12 - - 0.0
30/10:00pm 21.0 20.2 17.0 78 2.4 NNE 17 26 9 14 - - 0.0
30/09:30pm 21.1 21.7 16.9 77 2.6 N 9 19 5 10 - - 0.0
30/09:00pm 21.2 20.0 17.0 77 2.6 NNE 19 28 10 15 - - 0.0
30/08:30pm 21.1 20.3 17.1 78 2.4 NE 17 30 9 16 - - 0.0
30/08:00pm 21.2 20.4 17.2 78 2.4 NE 17 28 9 15 - - 0.0
30/07:30pm 22.0 21.3 16.5 71 3.3 ENE 15 24 8 13 - - 0.0
30/07:00pm 22.6 22.7 16.4 68 3.8 E 11 15 6 8 - - 0.0
30/06:30pm 21.9 22.3 16.4 71 3.3 ENE 9 17 5 9 - - 0.0
30/06:00pm 21.9 22.9 16.4 71 3.3 NNE 6 15 3 8 - - 0.0

Latest Capital City Observations: Canberra | Sydney | Melbourne | Brisbane | Adelaide | Perth | Hobart | Darwin

Other Formats:

Comma delimited format used in spreadsheet applications
http://www.bom.gov.au/fwo/IDN60901/IDN60901.94766.axf

JavaScript Object Notation format (JSON) in row-major order
http://www.bom.gov.au/fwo/IDN60901/IDN60901.94766.json